Latest Coastal Weather Observations for Avalon

IDV60701

Issued at 1:51 pm EDT Thursday 22 February 2018 (issued every 10 minutes, with the page automatically refreshed every 10 minutes)

About coastal observations | Map of coastal stations | Coastal observations for VIC | Marine services | Other Formats
Station Details ID: 087113 Name: AVALON AIRPORT Lat: -38.03 Lon: 144.48 Height: 10.6 m
Data from the previous 72 hours. | See also: Recent months at Avalon
Date/Time
EDT
Temp
°C
Wind Pressure Rain since
9am
mm
Weather Cloud Vis
km
Sea
Height
m
Swell
Dir  Spd
kts
Gust
kts
hPa Trend Height
m
Period
s
Dir
22/01:30pm 26.4 ESE 14 16 1013.0 - 0.0 - Cloudy 10 - - - -
22/01:00pm 26.5 E 14 17 1013.3 - 0.0 - Cloudy 10 - - - -
22/12:30pm 27.5 ESE 13 17 1013.5 - 0.0 - Partly cloudy 10 - - - -
22/12:00pm 25.5 SE 11 15 1014.0 - 0.0 - Mostly cloudy 10 - - - -
22/11:30am 24.4 SE 10 11 1014.0 - 0.0 - Partly cloudy 10 - - - -
22/11:00am 26.3 ESE 7 9 1014.2 - 0.0 - Partly cloudy 10 - - - -
22/10:30am 24.3 E 4 7 1014.6 - 0.0 - - 10 - - - -
22/10:00am 22.9 ENE 5 7 1014.7 - 0.0 - Cloudy 10 - - - -
22/09:30am 22.3 ENE 7 9 1014.8 - 0.0 - Partly cloudy - - - - -
22/09:00am 21.5 ENE 7 9 1014.9 - 0.0 - Cloudy - - - - -
22/08:30am 21.1 ENE 7 9 1014.9 - 0.0 - Cloudy - - - - -
22/08:00am 20.9 ENE 5 7 1014.6 - 0.0 - Cloudy - - - - -
22/07:30am 19.8 ESE 4 6 1014.2 - 0.0 - Cloudy - - - - -
22/07:00am 19.3 ESE 6 8 1013.9 - 0.0 - Cloudy - - - - -
22/06:30am 19.6 SSE 2 4 1013.9 - 0.0 - Partly cloudy - - - - -
22/06:00am 19.6 SSE 5 6 1013.6 - 0.0 - Mostly cloudy - - - - -
22/05:30am 19.8 S 6 8 1013.6 - 0.0 - Cloudy - - - - -
22/05:00am 19.8 S 8 11 1013.6 - 0.0 - Cloudy - - - - -
22/04:30am 19.9 SSW 7 9 1013.4 - 0.0 - Cloudy - - - - -
22/04:00am 20.1 S 8 10 1013.2 - 0.0 - Cloudy - - - - -
22/03:30am 20.1 SSW 6 7 1013.4 - 0.0 - Cloudy 10 - - - -
22/03:00am 20.0 SSW 5 6 1013.3 - 0.0 - Cloudy 10 - - - -
22/02:30am 20.2 CALM 0 2 1013.5 - 0.0 - Cloudy 10 - - - -
22/02:00am 20.4 WSW 3 5 1013.8 - 0.0 - Cloudy 10 - - - -
22/01:30am 20.8 CALM 0 0 1013.8 - 0.0 - Cloudy 10 - - - -
22/01:00am 20.9 CALM 0 3 1013.8 - 0.0 - Cloudy 10 - - - -
22/12:30am 20.7 CALM 0 0 1014.0 - 0.0 - Cloudy 10 - - - -
22/12:00am 21.0 SW 1 3 1014.2 - 0.0 - Cloudy 10 - - - -
 
Date/Time
EDT
Temp
°C
Wind Pressure Rain since
9am
mm
Weather Cloud Vis
km
Sea
Height
m
Swell
Dir  Spd
kts
Gust
kts
hPa Trend Height
m
Period
s
Dir
21/11:30pm 21.6 WSW 3 4 1014.5 - 0.0 - Partly cloudy 10 - - - -
21/11:00pm 22.0 CALM 0 0 1014.7 - 0.0 - - 10 - - - -
21/10:30pm 22.4 SSE 7 8 1014.5 - 0.0 - - 10 - - - -
21/10:00pm 22.6 SE 6 9 1014.3 - 0.0 - - 10 - - - -
21/09:30pm 22.1 S 5 7 1014.2 - 0.0 - - 10 - - - -
21/09:00pm 22.5 SSE 10 12 1013.7 - 0.0 - Cloudy 10 - - - -
21/08:30pm 22.0 SSW 11 14 1013.5 - 0.0 - - 10 - - - -
21/08:00pm 22.0 SW 14 18 1013.2 - 0.0 - - 10 - - - -
21/07:42pm 23.5 SSW 11 19 1013.0 - 0.0 - - 10 - - - -
21/07:30pm 26.9 CALM 0 0 1012.8 - 0.0 - - 10 - - - -
21/07:00pm 27.5 CALM 0 3 1012.5 - 0.0 - - 10 - - - -
21/06:30pm 27.7 ENE 4 5 1012.2 - 0.0 - - 10 - - - -
21/06:00pm 27.6 ESE 6 7 1012.3 - 0.0 - Mostly cloudy 10 - - - -
21/05:30pm 26.4 ESE 4 6 1012.4 - 0.0 - - 10 - - - -
21/05:00pm 26.7 SE 5 6 1012.5 - 0.0 - - 10 - - - -
21/04:30pm 27.9 SSE 7 9 1012.7 - 0.0 - - 10 - - - -
21/04:00pm 27.5 SE 8 10 1012.7 - 0.0 - - 10 - - - -
21/03:30pm 26.9 SE 11 13 1012.8 - 0.0 - - 10 - - - -
21/03:00pm 28.7 SSE 12 14 1013.1 - 0.0 - Cloudy 10 - - - -
21/02:30pm 29.0 S 11 15 1013.2 - 0.0 - Partly cloudy 10 - - - -
21/02:00pm 28.8 SSW 5 7 1013.4 - 0.0 - Partly cloudy 10 - - - -
21/01:30pm 27.7 SE 8 10 1013.4 - 0.0 - Partly cloudy 10 - - - -
21/01:00pm 26.7 ESE 5 9 1013.7 - 0.0 - - 10 - - - -
21/12:30pm 26.5 E 7 9 1014.0 - 0.0 - - 10 - - - -
21/12:00pm 26.1 NE 4 8 1014.5 - 0.0 - Mostly cloudy 10 - - - -
21/11:30am 24.9 NNE 6 10 1014.7 - 0.0 - - 10 - - - -
21/11:00am 24.4 NNE 6 9 1015.1 - 0.0 - - 10 - - - -
21/10:30am 23.7 NE 6 8 1015.0 - 0.0 - - 10 - - - -
21/10:00am 21.2 NE 7 8 1014.8 - 0.0 - - 10 - - - -
21/09:30am 20.0 NE 5 7 1015.0 - 0.0 - - - - - - -
21/09:00am 18.4 NE 6 8 1015.2 - 0.0 - Partly cloudy - - - - -
21/08:30am 17.1 CALM 0 4 1015.2 - 0.0 - - - - - - -
21/08:00am 15.2 CALM 0 0 1014.9 - 0.0 - - - - - - -
21/07:30am 14.5 CALM 0 0 1014.7 - 0.0 - - - - - - -
21/07:00am 14.6 NE 1 4 1014.4 - 0.0 - - - - - - -
21/06:30am 14.6 NW 2 5 1014.3 - 0.0 - - - - - - -
21/06:00am 14.3 CALM 0 0 1014.1 - 0.0 - Partly cloudy - - - - -
21/05:30am 13.9 CALM 0 0 1013.6 - 0.0 - - - - - - -
21/05:00am 14.1 CALM 0 0 1013.8 - 0.0 - - - - - - -
21/04:30am 14.3 CALM 0 0 1014.2 - 0.0 - - - - - - -
21/04:00am 14.1 WNW 3 4 1013.8 - 0.0 - - - - - - -
21/03:30am 14.0 NW 1 5 1013.8 - 0.0 - - - - - - -
21/03:00am 15.4 CALM 0 0 1013.7 - 0.0 - - - - - - -
21/02:30am 16.3 ESE 3 4 1013.9 - 0.0 - - - - - - -
21/02:00am 16.2 ESE 7 8 1014.1 - 0.0 - - 10 - - - -
21/01:30am 16.9 ESE 9 11 1014.5 - 0.0 - - 10 - - - -
21/01:00am 16.8 ESE 8 11 1014.8 - 0.0 - - 10 - - - -
21/12:30am 17.2 ESE 8 12 1015.3 - 0.0 - - 10 - - - -
21/12:00am 17.7 ESE 12 14 1015.6 - 0.0 - - 10 - - - -
 
Date/Time
EDT
Temp
°C
Wind Pressure Rain since
9am
mm
Weather Cloud Vis
km
Sea
Height
m
Swell
Dir  Spd
kts
Gust
kts
hPa Trend Height
m
Period
s
Dir
20/11:30pm 18.1 ESE 13 16 1015.9 - 0.0 - - 10 - - - -
20/11:00pm 18.5 ESE 13 16 1015.9 - 0.0 - - 10 - - - -
20/10:30pm 19.0 ESE 13 17 1016.0 - 0.0 - - 10 - - - -
20/10:00pm 19.6 ESE 14 17 1016.0 - 0.0 - - 10 - - - -
20/09:30pm 20.3 ESE 13 15 1016.1 - 0.0 - - 10 - - - -
20/09:00pm 20.7 ESE 11 14 1015.8 - 0.0 - - 10 - - - -
20/08:30pm 21.3 ESE 11 17 1015.4 - 0.0 - - 10 - - - -
20/08:00pm 22.1 ESE 10 13 1015.4 - 0.0 - - 10 - - - -
20/07:30pm 23.3 ESE 12 15 1015.1 - 0.0 - - 10 - - - -
20/07:00pm 24.3 SE 13 17 1015.0 - 0.0 - - 10 - - - -
20/06:30pm 25.4 ESE 15 19 1014.7 - 0.0 - - 10 - - - -
20/06:00pm 25.8 ESE 15 20 1014.7 - 0.0 - - 10 - - - -
20/05:30pm 26.4 ESE 16 21 1014.7 - 0.0 - - 10 - - - -
20/05:00pm 26.5 ESE 17 20 1014.9 - 0.0 - - 10 - - - -
20/04:30pm 26.8 ESE 15 19 1015.4 - 0.0 - - 10 - - - -
20/04:00pm 26.7 ESE 13 17 1015.8 - 0.0 - - 10 - - - -
20/03:30pm 26.2 ESE 14 19 1016.1 - 0.0 - - 10 - - - -
20/03:00pm 26.5 ESE 14 18 1016.5 - 0.0 - - 10 - - - -
20/02:30pm 25.4 ESE 12 17 1017.1 - 0.0 - - 10 - - - -
20/02:00pm 25.1 ESE 15 20 1017.2 - 0.0 - - 10 - - - -
20/01:30pm 24.7 SE 15 21 1017.5 - 0.0 - - 10 - - - -
20/01:00pm 23.6 ESE 15 19 1017.9 - 0.0 - - 10 - - - -
20/12:30pm 23.0 ESE 14 19 1018.1 - 0.0 - - 10 - - - -
20/12:00pm 22.4 ESE 14 20 1018.4 - 0.0 - - 10 - - - -
20/11:30am 21.6 ESE 13 18 1018.6 - 0.0 - - 10 - - - -
20/11:00am 21.2 ESE 13 17 1018.9 - 0.0 - - 10 - - - -
20/10:30am 20.1 ESE 11 15 1019.1 - 0.0 - - 10 - - - -
20/10:00am 19.5 ESE 13 17 1019.1 - 0.0 - - 10 - - - -
20/09:30am 19.2 ESE 15 19 1019.2 - 0.0 - Partly cloudy - - - - -
20/09:00am 18.6 ESE 16 20 1019.1 - 0.0 - Mostly clear - - - - -
20/08:30am 17.9 ESE 18 24 1019.1 - 0.0 - Partly cloudy - - - - -
20/08:00am 17.2 ESE 16 21 1019.1 - 0.0 - Partly cloudy - - - - -
20/07:30am 16.5 ESE 17 23 1019.1 - 0.0 - Partly cloudy - - - - -
20/07:00am 16.1 ESE 18 23 1019.2 - 0.0 - Partly cloudy - - - - -
20/06:30am 16.2 ESE 18 23 1019.1 - 0.0 - Partly cloudy - - - - -
20/06:00am 16.3 ESE 19 24 1018.9 - 0.0 - Mostly cloudy - - - - -
20/05:30am 16.3 ESE 19 24 1018.9 - 0.0 - Partly cloudy - - - - -
20/05:00am 16.3 ESE 21 31 1018.9 - 0.0 - Partly cloudy - - - - -
20/04:55am 16.4 ESE 21 31 1018.7 - 0.0 - Partly cloudy - - - - -
20/04:30am 16.6 ESE 21 28 1018.9 - 0.0 - Partly cloudy - - - - -
20/04:00am 16.8 ESE 24 31 1018.7 - 0.0 - Partly cloudy - - - - -
20/03:30am 17.0 ESE 23 31 1018.6 - 0.0 - Partly cloudy - - - - -
20/03:00am 17.1 ESE 24 32 1018.5 - 0.0 - Mostly clear - - - - -
20/02:53am 17.2 ESE 25 35 1018.4 - 0.0 - Partly cloudy - - - - -
20/02:30am 17.3 ESE 25 32 1018.1 - 0.0 - - - - - - -
20/02:00am 17.2 ESE 25 32 1018.1 - 0.0 - - - - - - -
20/01:30am 17.2 ESE 22 29 1018.4 - 0.0 - Partly cloudy - - - - -
20/01:00am 17.5 ESE 24 30 1017.9 - 0.0 - - - - - - -
20/12:30am 17.6 ESE 25 36 1017.6 - 0.0 - - - - - - -
20/12:26am 17.5 ESE 24 34 1017.8 - 0.0 - - - - - - -
20/12:00am 17.7 ESE 26 34 1017.7 - 0.0 - - - - - - -
 
Date/Time
EDT
Temp
°C
Wind Pressure Rain since
9am
mm
Weather Cloud Vis
km
Sea
Height
m
Swell
Dir  Spd
kts
Gust
kts
hPa Trend Height
m
Period
s
Dir
19/11:31pm 17.9 ESE 26 36 1018.1 - 0.0 - Partly cloudy - - - - -
19/11:30pm 18.0 ESE 26 33 1018.2 - 0.0 - Partly cloudy - - - - -
19/11:19pm 18.3 ESE 23 33 1018.3 - 0.0 - Partly cloudy - - - - -
19/11:00pm 18.3 ESE 22 28 1018.2 - 0.0 - Partly cloudy - - - - -
19/10:30pm 18.5 ESE 24 32 1018.0 - 0.0 - Partly cloudy - - - - -
19/10:16pm 18.6 ESE 23 37 1017.6 - 0.0 - Partly cloudy - - - - -
19/10:00pm 19.0 ESE 24 33 1017.6 - 0.0 - Partly cloudy - - - - -
19/09:52pm 19.2 ESE 23 33 1017.5 - 0.0 - Cloudy - - - - -
19/09:30pm 19.3 ESE 22 31 1017.4 - 0.0 - Cloudy - - - - -
19/09:00pm 19.4 SE 20 26 1017.3 - 0.0 - Partly cloudy - - - - -
19/08:30pm 20.1 ESE 20 27 1016.9 - 0.0 - Partly cloudy - - - - -
19/08:00pm 20.4 ESE 21 30 1016.5 - 0.0 - Partly cloudy - - - - -
19/07:30pm 21.5 SE 21 27 1016.3 - 0.0 - Partly cloudy - - - - -
19/07:05pm 21.5 SE 21 31 1016.1 - 0.0 - Cloudy - - - - -
19/07:00pm 21.8 SE 23 31 1016.1 - 0.0 - Cloudy - - - - -
19/06:30pm 21.5 SE 23 31 1016.1 - 0.0 - Cloudy - - - - -
19/06:00pm 22.4 SE 21 29 1016.1 - 0.0 - Cloudy - - - - -
19/05:30pm 22.4 SE 21 28 1016.1 - 0.0 - Partly cloudy - - - - -
19/05:00pm 23.0 SE 21 28 1016.0 - 0.0 - Partly cloudy - - - - -
19/04:30pm 22.4 SE 20 25 1016.2 - 0.0 - Cloudy - - - - -
19/04:00pm 22.4 SSE 19 29 1016.3 - 0.0 - Partly cloudy - - - - -
19/03:53pm 22.5 SSE 19 29 1016.3 - 0.0 - Partly cloudy - - - - -
19/03:30pm 22.7 SE 18 23 1016.2 - 0.0 - Partly cloudy - - - - -
19/03:00pm 22.4 SE 18 22 1016.1 - 0.0 - Mostly cloudy - - - - -
19/02:30pm 23.1 SSE 16 21 1016.1 - 0.0 - Partly cloudy - - - - -
19/02:00pm 22.7 SE 18 22 1015.9 - 0.0 - Partly cloudy - - - - -

Other Formats:

Comma delimited format used in spreadsheet applications
http://www.bom.gov.au/fwo/IDV60701/IDV60701.94854.axf

JavaScript Object Notation format (JSON) in row-major order
http://www.bom.gov.au/fwo/IDV60701/IDV60701.94854.json